sensor_id;sensor_type;location;lat;lon;timestamp;P1;durP1;ratioP1;P2;durP2;ratioP2
58978;SDS011;44763;50.464;30.612;2023-07-20T05:46:48;1.10;;;0.40;;
58978;SDS011;44763;50.464;30.612;2023-07-20T05:48:57;1.00;;;0.40;;
58978;SDS011;44763;50.464;30.612;2023-07-20T05:50:59;1.40;;;0.50;;
58978;SDS011;44763;50.464;30.612;2023-07-20T05:53:01;1.20;;;0.20;;
58978;SDS011;44763;50.464;30.612;2023-07-20T05:55:02;3.90;;;0.50;;
58978;SDS011;44763;50.464;30.612;2023-07-20T05:57:05;2.10;;;1.00;;
58978;SDS011;44763;50.464;30.612;2023-07-20T05:59:07;3.20;;;0.90;;
58978;SDS011;44763;50.464;30.612;2023-07-20T06:01:08;4.00;;;0.90;;
58978;SDS011;44763;50.464;30.612;2023-07-20T06:03:10;1.80;;;1.00;;
58978;SDS011;44763;50.464;30.612;2023-07-20T06:05:12;5.20;;;2.00;;
58978;SDS011;44763;50.464;30.612;2023-07-20T06:07:14;2.70;;;1.40;;
58978;SDS011;44763;50.464;30.612;2023-07-20T06:09:15;7.10;;;2.30;;
58978;SDS011;44763;50.464;30.612;2023-07-20T06:11:17;9.70;;;3.50;;
58978;SDS011;44763;50.464;30.612;2023-07-20T06:13:19;6.10;;;2.80;;
58978;SDS011;44763;50.464;30.612;2023-07-20T06:15:25;2.00;;;1.60;;
58978;SDS011;44763;50.464;30.612;2023-07-20T06:17:28;3.10;;;2.80;;
58978;SDS011;44763;50.464;30.612;2023-07-20T06:19:30;3.30;;;2.00;;
58978;SDS011;44763;50.464;30.612;2023-07-20T06:21:32;3.80;;;2.40;;
58978;SDS011;44763;50.464;30.612;2023-07-20T06:23:33;2.20;;;1.20;;
58978;SDS011;44763;50.464;30.612;2023-07-20T06:25:35;4.10;;;1.00;;
58978;SDS011;44763;50.464;30.612;2023-07-20T06:27:36;0.70;;;0.50;;
58978;SDS011;44763;50.464;30.612;2023-07-20T06:29:38;1.70;;;0.60;;
58978;SDS011;44763;50.464;30.612;2023-07-20T06:31:40;2.10;;;0.60;;
58978;SDS011;44763;50.464;30.612;2023-07-20T06:33:42;1.30;;;0.70;;
58978;SDS011;44763;50.464;30.612;2023-07-20T06:35:44;3.70;;;0.70;;
58978;SDS011;44763;50.464;30.612;2023-07-20T06:37:46;3.70;;;0.60;;
58978;SDS011;44763;50.464;30.612;2023-07-20T06:39:48;5.20;;;0.70;;
58978;SDS011;44763;50.464;30.612;2023-07-20T06:41:53;3.70;;;0.90;;
58978;SDS011;44763;50.464;30.612;2023-07-20T06:43:56;2.60;;;0.70;;
58978;SDS011;44763;50.464;30.612;2023-07-20T06:45:59;5.30;;;0.60;;
58978;SDS011;44763;50.464;30.612;2023-07-20T06:48:01;0.50;;;0.40;;
58978;SDS011;44763;50.464;30.612;2023-07-20T06:50:04;1.30;;;0.40;;
58978;SDS011;44763;50.464;30.612;2023-07-20T06:52:06;1.10;;;0.20;;
58978;SDS011;44763;50.464;30.612;2023-07-20T06:54:09;3.80;;;0.20;;
58978;SDS011;44763;50.464;30.612;2023-07-20T06:56:10;1.80;;;0.70;;
58978;SDS011;44763;50.464;30.612;2023-07-20T06:58:12;1.60;;;0.60;;
58978;SDS011;44763;50.464;30.612;2023-07-20T07:00:14;5.20;;;0.20;;
58978;SDS011;44763;50.464;30.612;2023-07-20T07:02:16;3.30;;;0.30;;
58978;SDS011;44763;50.464;30.612;2023-07-20T07:04:20;2.20;;;0.50;;
58978;SDS011;44763;50.464;30.612;2023-07-20T07:06:22;1.20;;;0.20;;
58978;SDS011;44763;50.464;30.612;2023-07-20T07:08:25;1.50;;;0.30;;
58978;SDS011;44763;50.464;30.612;2023-07-20T07:10:27;3.60;;;0.30;;
58978;SDS011;44763;50.464;30.612;2023-07-20T07:12:29;5.50;;;0.60;;
58978;SDS011;44763;50.464;30.612;2023-07-20T07:14:31;4.00;;;0.50;;
58978;SDS011;44763;50.464;30.612;2023-07-20T07:16:33;0.30;;;0.20;;
58978;SDS011;44763;50.464;30.612;2023-07-20T07:18:39;5.40;;;0.30;;
58978;SDS011;44763;50.464;30.612;2023-07-20T07:20:41;1.60;;;0.20;;
58978;SDS011;44763;50.464;30.612;2023-07-20T07:22:43;5.70;;;0.60;;
58978;SDS011;44763;50.464;30.612;2023-07-20T07:24:47;4.30;;;0.50;;
58978;SDS011;44763;50.464;30.612;2023-07-20T07:26:49;4.70;;;0.20;;
58978;SDS011;44763;50.464;30.612;2023-07-20T07:28:50;2.10;;;0.30;;
58978;SDS011;44763;50.464;30.612;2023-07-20T07:30:52;2.50;;;0.20;;
58978;SDS011;44763;50.464;30.612;2023-07-20T07:32:56;2.10;;;0.20;;
58978;SDS011;44763;50.464;30.612;2023-07-20T07:34:58;3.40;;;0.20;;
58978;SDS011;44763;50.464;30.612;2023-07-20T07:37:00;1.80;;;0.20;;
58978;SDS011;44763;50.464;30.612;2023-07-20T07:39:01;0.70;;;0.20;;
58978;SDS011;44763;50.464;30.612;2023-07-20T07:41:23;0.70;;;0.20;;
58978;SDS011;44763;50.464;30.612;2023-07-20T07:43:25;1.40;;;0.20;;
58978;SDS011;44763;50.464;30.612;2023-07-20T07:45:26;0.30;;;0.10;;
58978;SDS011;44763;50.464;30.612;2023-07-20T07:47:28;1.30;;;0.30;;
58978;SDS011;44763;50.464;30.612;2023-07-20T07:49:30;0.60;;;0.20;;
58978;SDS011;44763;50.464;30.612;2023-07-20T07:51:32;0.80;;;0.10;;
58978;SDS011;44763;50.464;30.612;2023-07-20T07:53:34;0.20;;;0.20;;
58978;SDS011;44763;50.464;30.612;2023-07-20T07:55:38;1.40;;;0.20;;
58978;SDS011;44763;50.464;30.612;2023-07-20T07:57:40;4.80;;;0.10;;
58978;SDS011;44763;50.464;30.612;2023-07-20T07:59:41;2.00;;;0.30;;
58978;SDS011;44763;50.464;30.612;2023-07-20T08:01:43;1.70;;;0.20;;
58978;SDS011;44763;50.464;30.612;2023-07-20T08:03:45;0.60;;;0.10;;
58978;SDS011;44763;50.464;30.612;2023-07-20T08:05:48;0.40;;;0.20;;
58978;SDS011;44763;50.464;30.612;2023-07-20T08:07:50;2.40;;;0.20;;
58978;SDS011;44763;50.464;30.612;2023-07-20T08:09:51;2.50;;;0.10;;
58978;SDS011;44763;50.464;30.612;2023-07-20T08:11:53;2.80;;;0.40;;
58978;SDS011;44763;50.464;30.612;2023-07-20T08:13:55;2.40;;;0.10;;
58978;SDS011;44763;50.464;30.612;2023-07-20T08:15:56;6.40;;;0.30;;
58978;SDS011;44763;50.464;30.612;2023-07-20T08:17:58;0.20;;;0.10;;
58978;SDS011;44763;50.464;30.612;2023-07-20T08:20:01;1.60;;;0.10;;
58978;SDS011;44763;50.464;30.612;2023-07-20T08:22:03;1.40;;;0.10;;
58978;SDS011;44763;50.464;30.612;2023-07-20T08:24:06;1.10;;;0.10;;
58978;SDS011;44763;50.464;30.612;2023-07-20T08:26:09;0.40;;;0.10;;
58978;SDS011;44763;50.464;30.612;2023-07-20T08:28:11;0.20;;;0.10;;
58978;SDS011;44763;50.464;30.612;2023-07-20T08:32:16;0.10;;;0.10;;
58978;SDS011;44763;50.464;30.612;2023-07-20T08:34:18;0.30;;;0.10;;
58978;SDS011;44763;50.464;30.612;2023-07-20T08:36:31;3.50;;;0.10;;
58978;SDS011;44763;50.464;30.612;2023-07-20T08:38:34;1.60;;;0.30;;
58978;SDS011;44763;50.464;30.612;2023-07-20T08:40:39;1.60;;;0.20;;
58978;SDS011;44763;50.464;30.612;2023-07-20T08:44:58;0.50;;;0.10;;
58978;SDS011;44763;50.464;30.612;2023-07-20T08:47:02;1.50;;;0.10;;
58978;SDS011;44763;50.464;30.612;2023-07-20T08:49:05;1.30;;;0.20;;
58978;SDS011;44763;50.464;30.612;2023-07-20T08:51:08;1.90;;;0.30;;
58978;SDS011;44763;50.464;30.612;2023-07-20T08:53:12;1.90;;;0.20;;
58978;SDS011;44763;50.464;30.612;2023-07-20T08:55:14;0.40;;;0.10;;
58978;SDS011;44763;50.464;30.612;2023-07-20T08:58:31;1.90;;;0.30;;
58978;SDS011;44763;50.464;30.612;2023-07-20T09:00:33;3.30;;;0.30;;
58978;SDS011;44763;50.464;30.612;2023-07-20T09:02:35;2.70;;;0.20;;
58978;SDS011;44763;50.464;30.612;2023-07-20T09:04:42;2.10;;;0.30;;
58978;SDS011;44763;50.464;30.612;2023-07-20T09:06:46;0.60;;;0.20;;
58978;SDS011;44763;50.464;30.612;2023-07-20T09:08:49;1.20;;;0.20;;
58978;SDS011;44763;50.464;30.612;2023-07-20T09:10:51;4.90;;;4.50;;
58978;SDS011;44763;50.464;30.612;2023-07-20T09:12:53;3.20;;;0.40;;
58978;SDS011;44763;50.464;30.612;2023-07-20T09:14:57;1.80;;;0.10;;
58978;SDS011;44763;50.464;30.612;2023-07-20T09:16:59;0.60;;;0.30;;
58978;SDS011;44763;50.464;30.612;2023-07-20T09:19:01;0.40;;;0.30;;
58978;SDS011;44763;50.464;30.612;2023-07-20T09:21:06;0.30;;;0.10;;
58978;SDS011;44763;50.464;30.612;2023-07-20T09:23:08;0.70;;;0.20;;
58978;SDS011;44763;50.464;30.612;2023-07-20T09:25:16;15.90;;;2.80;;
58978;SDS011;44763;50.464;30.612;2023-07-20T09:27:35;0.90;;;0.50;;
58978;SDS011;44763;50.464;30.612;2023-07-20T09:29:48;3.80;;;0.90;;
58978;SDS011;44763;50.464;30.612;2023-07-20T09:31:59;0.30;;;0.20;;
58978;SDS011;44763;50.464;30.612;2023-07-20T09:34:03;1.50;;;0.20;;
58978;SDS011;44763;50.464;30.612;2023-07-20T09:36:06;0.90;;;0.20;;
58978;SDS011;44763;50.464;30.612;2023-07-20T09:38:28;1.70;;;0.20;;
58978;SDS011;44763;50.464;30.612;2023-07-20T09:40:50;5.70;;;0.30;;
58978;SDS011;44763;50.464;30.612;2023-07-20T09:42:55;0.60;;;0.20;;
58978;SDS011;44763;50.464;30.612;2023-07-20T09:45:06;1.00;;;0.30;;
58978;SDS011;44763;50.464;30.612;2023-07-20T09:47:09;0.90;;;0.30;;
58978;SDS011;44763;50.464;30.612;2023-07-20T09:49:11;4.30;;;0.30;;
58978;SDS011;44763;50.464;30.612;2023-07-20T09:51:16;2.40;;;0.30;;
58978;SDS011;44763;50.464;30.612;2023-07-20T09:53:19;1.10;;;0.20;;
58978;SDS011;44763;50.464;30.612;2023-07-20T09:55:22;3.50;;;0.30;;
58978;SDS011;44763;50.464;30.612;2023-07-20T09:57:25;0.30;;;0.20;;
58978;SDS011;44763;50.464;30.612;2023-07-20T09:59:27;1.50;;;0.30;;
58978;SDS011;44763;50.464;30.612;2023-07-20T10:01:29;1.10;;;0.10;;
58978;SDS011;44763;50.464;30.612;2023-07-20T10:03:32;1.50;;;0.10;;
58978;SDS011;44763;50.464;30.612;2023-07-20T10:05:39;1.50;;;0.30;;
58978;SDS011;44763;50.464;30.612;2023-07-20T10:07:46;0.70;;;0.30;;
58978;SDS011;44763;50.464;30.612;2023-07-20T10:09:49;0.40;;;0.30;;
58978;SDS011;44763;50.464;30.612;2023-07-20T10:11:54;1.70;;;0.40;;
58978;SDS011;44763;50.464;30.612;2023-07-20T10:14:19;2.00;;;0.30;;
58978;SDS011;44763;50.464;30.612;2023-07-20T10:16:22;1.30;;;0.30;;
58978;SDS011;44763;50.464;30.612;2023-07-20T10:20:42;3.10;;;0.20;;
58978;SDS011;44763;50.464;30.612;2023-07-20T10:22:49;1.10;;;0.20;;
58978;SDS011;44763;50.464;30.612;2023-07-20T10:24:54;0.80;;;0.20;;
58978;SDS011;44763;50.464;30.612;2023-07-20T10:27:00;0.40;;;0.20;;
58978;SDS011;44763;50.464;30.612;2023-07-20T10:29:02;2.50;;;0.20;;
58978;SDS011;44763;50.464;30.612;2023-07-20T10:31:09;2.20;;;0.20;;
58978;SDS011;44763;50.464;30.612;2023-07-20T10:33:13;1.20;;;0.30;;
58978;SDS011;44763;50.464;30.612;2023-07-20T10:35:15;0.50;;;0.20;;
58978;SDS011;44763;50.464;30.612;2023-07-20T10:42:32;0.60;;;0.30;;
58978;SDS011;44763;50.464;30.612;2023-07-20T10:44:38;1.20;;;0.20;;
58978;SDS011;44763;50.464;30.612;2023-07-20T10:46:44;0.50;;;0.30;;
58978;SDS011;44763;50.464;30.612;2023-07-20T10:49:03;0.30;;;0.20;;
58978;SDS011;44763;50.464;30.612;2023-07-20T10:51:12;2.10;;;0.20;;
58978;SDS011;44763;50.464;30.612;2023-07-20T10:53:16;2.50;;;0.40;;
58978;SDS011;44763;50.464;30.612;2023-07-20T10:55:19;1.10;;;0.20;;
58978;SDS011;44763;50.464;30.612;2023-07-20T10:57:24;0.80;;;0.50;;
58978;SDS011;44763;50.464;30.612;2023-07-20T11:01:35;1.40;;;0.20;;
58978;SDS011;44763;50.464;30.612;2023-07-20T11:03:39;2.90;;;0.20;;
58978;SDS011;44763;50.464;30.612;2023-07-20T11:05:41;2.00;;;0.20;;
58978;SDS011;44763;50.464;30.612;2023-07-20T11:07:43;2.00;;;0.20;;
58978;SDS011;44763;50.464;30.612;2023-07-20T11:09:45;0.60;;;0.10;;
58978;SDS011;44763;50.464;30.612;2023-07-20T11:11:50;1.00;;;0.20;;
58978;SDS011;44763;50.464;30.612;2023-07-20T11:18:39;0.70;;;0.20;;
58978;SDS011;44763;50.464;30.612;2023-07-20T11:20:42;0.70;;;0.30;;
58978;SDS011;44763;50.464;30.612;2023-07-20T11:22:44;0.70;;;0.20;;
58978;SDS011;44763;50.464;30.612;2023-07-20T11:24:46;0.90;;;0.20;;
58978;SDS011;44763;50.464;30.612;2023-07-20T11:26:50;0.50;;;0.10;;
58978;SDS011;44763;50.464;30.612;2023-07-20T11:28:53;1.90;;;0.30;;
58978;SDS011;44763;50.464;30.612;2023-07-20T11:30:55;5.60;;;0.40;;
58978;SDS011;44763;50.464;30.612;2023-07-20T11:32:58;1.90;;;0.10;;
58978;SDS011;44763;50.464;30.612;2023-07-20T11:35:00;2.50;;;0.40;;
58978;SDS011;44763;50.464;30.612;2023-07-20T11:37:01;4.10;;;0.20;;
58978;SDS011;44763;50.464;30.612;2023-07-20T11:39:08;0.50;;;0.40;;
58978;SDS011;44763;50.464;30.612;2023-07-20T11:41:11;1.30;;;0.20;;
58978;SDS011;44763;50.464;30.612;2023-07-20T11:43:14;1.50;;;0.30;;
58978;SDS011;44763;50.464;30.612;2023-07-20T11:45:19;0.20;;;0.10;;
58978;SDS011;44763;50.464;30.612;2023-07-20T11:47:21;1.00;;;0.20;;
58978;SDS011;44763;50.464;30.612;2023-07-20T11:49:23;0.70;;;0.30;;
58978;SDS011;44763;50.464;30.612;2023-07-20T11:51:26;0.50;;;0.40;;
58978;SDS011;44763;50.464;30.612;2023-07-20T11:53:29;3.60;;;0.40;;
58978;SDS011;44763;50.464;30.612;2023-07-20T11:55:31;0.50;;;0.30;;
58978;SDS011;44763;50.464;30.612;2023-07-20T11:57:33;3.40;;;0.30;;
58978;SDS011;44763;50.464;30.612;2023-07-20T11:59:34;2.80;;;0.20;;
58978;SDS011;44763;50.464;30.612;2023-07-20T12:01:36;0.90;;;0.20;;
58978;SDS011;44763;50.464;30.612;2023-07-20T12:03:38;1.50;;;0.20;;
58978;SDS011;44763;50.464;30.612;2023-07-20T12:05:40;0.80;;;0.20;;
58978;SDS011;44763;50.464;30.612;2023-07-20T12:07:45;1.90;;;0.30;;
58978;SDS011;44763;50.464;30.612;2023-07-20T12:12:12;0.60;;;0.20;;
58978;SDS011;44763;50.464;30.612;2023-07-20T12:14:14;0.60;;;0.20;;
58978;SDS011;44763;50.464;30.612;2023-07-20T12:16:19;0.60;;;0.20;;
58978;SDS011;44763;50.464;30.612;2023-07-20T12:18:22;0.50;;;0.20;;
58978;SDS011;44763;50.464;30.612;2023-07-20T12:20:42;0.70;;;0.10;;
58978;SDS011;44763;50.464;30.612;2023-07-20T12:22:44;1.10;;;0.20;;
58978;SDS011;44763;50.464;30.612;2023-07-20T12:24:46;0.30;;;0.20;;
58978;SDS011;44763;50.464;30.612;2023-07-20T12:26:47;5.00;;;0.20;;
58978;SDS011;44763;50.464;30.612;2023-07-20T12:28:50;0.40;;;0.20;;
58978;SDS011;44763;50.464;30.612;2023-07-20T12:30:52;3.40;;;0.20;;
58978;SDS011;44763;50.464;30.612;2023-07-20T12:32:58;1.30;;;0.30;;
58978;SDS011;44763;50.464;30.612;2023-07-20T12:35:00;1.80;;;0.10;;
58978;SDS011;44763;50.464;30.612;2023-07-20T12:37:02;3.30;;;0.40;;
58978;SDS011;44763;50.464;30.612;2023-07-20T12:39:05;2.40;;;0.10;;
58978;SDS011;44763;50.464;30.612;2023-07-20T12:41:07;0.30;;;0.30;;
58978;SDS011;44763;50.464;30.612;2023-07-20T12:43:09;0.50;;;0.20;;
58978;SDS011;44763;50.464;30.612;2023-07-20T12:45:10;3.80;;;0.10;;
58978;SDS011;44763;50.464;30.612;2023-07-20T12:47:13;1.60;;;0.20;;
58978;SDS011;44763;50.464;30.612;2023-07-20T12:49:14;1.30;;;0.20;;
58978;SDS011;44763;50.464;30.612;2023-07-20T12:51:16;1.60;;;0.20;;
58978;SDS011;44763;50.464;30.612;2023-07-20T12:53:18;0.70;;;0.20;;
58978;SDS011;44763;50.464;30.612;2023-07-20T12:55:19;0.90;;;0.20;;
58978;SDS011;44763;50.464;30.612;2023-07-20T12:57:22;3.00;;;0.20;;
58978;SDS011;44763;50.464;30.612;2023-07-20T12:59:24;0.40;;;0.20;;
58978;SDS011;44763;50.464;30.612;2023-07-20T13:01:25;0.30;;;0.10;;
58978;SDS011;44763;50.464;30.612;2023-07-20T13:03:27;0.80;;;0.30;;
58978;SDS011;44763;50.464;30.612;2023-07-20T13:05:32;3.20;;;0.30;;
58978;SDS011;44763;50.464;30.612;2023-07-20T13:07:37;1.40;;;0.40;;
58978;SDS011;44763;50.464;30.612;2023-07-20T13:09:43;4.30;;;0.30;;
58978;SDS011;44763;50.464;30.612;2023-07-20T13:11:45;1.30;;;0.20;;
58978;SDS011;44763;50.464;30.612;2023-07-20T13:13:49;1.00;;;0.10;;
58978;SDS011;44763;50.464;30.612;2023-07-20T13:15:51;1.10;;;0.40;;
58978;SDS011;44763;50.464;30.612;2023-07-20T13:17:53;0.70;;;0.20;;
58978;SDS011;44763;50.464;30.612;2023-07-20T13:19:55;0.40;;;0.30;;
58978;SDS011;44763;50.464;30.612;2023-07-20T13:21:56;2.40;;;0.30;;
58978;SDS011;44763;50.464;30.612;2023-07-20T13:23:58;1.40;;;0.30;;
58978;SDS011;44763;50.464;30.612;2023-07-20T13:26:00;0.70;;;0.30;;
58978;SDS011;44763;50.464;30.612;2023-07-20T13:28:01;1.10;;;0.20;;
58978;SDS011;44763;50.464;30.612;2023-07-20T13:30:04;0.30;;;0.20;;
58978;SDS011;44763;50.464;30.612;2023-07-20T13:32:15;2.20;;;0.20;;
58978;SDS011;44763;50.464;30.612;2023-07-20T13:34:17;0.20;;;0.10;;
58978;SDS011;44763;50.464;30.612;2023-07-20T13:36:20;1.30;;;0.20;;
58978;SDS011;44763;50.464;30.612;2023-07-20T13:38:23;1.60;;;0.20;;
58978;SDS011;44763;50.464;30.612;2023-07-20T13:40:25;0.50;;;0.30;;
58978;SDS011;44763;50.464;30.612;2023-07-20T13:42:26;0.30;;;0.20;;
58978;SDS011;44763;50.464;30.612;2023-07-20T13:44:28;1.10;;;0.20;;
58978;SDS011;44763;50.464;30.612;2023-07-20T13:46:30;1.10;;;0.30;;
58978;SDS011;44763;50.464;30.612;2023-07-20T13:48:35;0.60;;;0.20;;
58978;SDS011;44763;50.464;30.612;2023-07-20T13:50:38;1.10;;;0.20;;
58978;SDS011;44763;50.464;30.612;2023-07-20T13:52:42;3.20;;;0.20;;
58978;SDS011;44763;50.464;30.612;2023-07-20T13:54:44;1.00;;;0.40;;
58978;SDS011;44763;50.464;30.612;2023-07-20T13:56:51;2.70;;;0.20;;
58978;SDS011;44763;50.464;30.612;2023-07-20T13:58:53;0.50;;;0.30;;
58978;SDS011;44763;50.464;30.612;2023-07-20T14:00:59;0.80;;;0.30;;
58978;SDS011;44763;50.464;30.612;2023-07-20T14:03:01;1.50;;;0.40;;
58978;SDS011;44763;50.464;30.612;2023-07-20T14:05:05;1.70;;;0.40;;
58978;SDS011;44763;50.464;30.612;2023-07-20T14:07:10;2.90;;;0.20;;
58978;SDS011;44763;50.464;30.612;2023-07-20T14:09:13;3.10;;;0.40;;
58978;SDS011;44763;50.464;30.612;2023-07-20T14:11:15;0.60;;;0.30;;
58978;SDS011;44763;50.464;30.612;2023-07-20T14:13:21;4.80;;;0.30;;
58978;SDS011;44763;50.464;30.612;2023-07-20T14:15:38;5.50;;;0.30;;
58978;SDS011;44763;50.464;30.612;2023-07-20T14:17:40;1.60;;;0.30;;
58978;SDS011;44763;50.464;30.612;2023-07-20T14:19:42;1.80;;;0.40;;
58978;SDS011;44763;50.464;30.612;2023-07-20T14:21:44;3.60;;;0.30;;
58978;SDS011;44763;50.464;30.612;2023-07-20T14:23:48;0.80;;;0.30;;
58978;SDS011;44763;50.464;30.612;2023-07-20T14:25:54;0.60;;;0.30;;
58978;SDS011;44763;50.464;30.612;2023-07-20T14:27:56;1.50;;;0.20;;
58978;SDS011;44763;50.464;30.612;2023-07-20T14:29:58;1.10;;;0.20;;
58978;SDS011;44763;50.464;30.612;2023-07-20T14:32:00;0.90;;;0.30;;
58978;SDS011;44763;50.464;30.612;2023-07-20T14:34:02;2.70;;;0.30;;
58978;SDS011;44763;50.464;30.612;2023-07-20T14:36:04;0.90;;;0.30;;
58978;SDS011;44763;50.464;30.612;2023-07-20T14:38:06;2.80;;;0.50;;
58978;SDS011;44763;50.464;30.612;2023-07-20T14:40:08;1.30;;;0.30;;
58978;SDS011;44763;50.464;30.612;2023-07-20T14:42:10;2.30;;;0.40;;
58978;SDS011;44763;50.464;30.612;2023-07-20T14:44:15;0.80;;;0.30;;
58978;SDS011;44763;50.464;30.612;2023-07-20T14:46:17;1.00;;;0.50;;
58978;SDS011;44763;50.464;30.612;2023-07-20T14:48:22;2.30;;;0.50;;
58978;SDS011;44763;50.464;30.612;2023-07-20T14:50:24;5.00;;;1.00;;
58978;SDS011;44763;50.464;30.612;2023-07-20T14:52:26;1.20;;;0.50;;
58978;SDS011;44763;50.464;30.612;2023-07-20T14:54:29;1.80;;;0.40;;
58978;SDS011;44763;50.464;30.612;2023-07-20T14:56:31;3.50;;;0.50;;
58978;SDS011;44763;50.464;30.612;2023-07-20T14:58:33;1.70;;;0.40;;
58978;SDS011;44763;50.464;30.612;2023-07-20T15:00:36;1.80;;;0.40;;
58978;SDS011;44763;50.464;30.612;2023-07-20T15:02:38;0.60;;;0.50;;
58978;SDS011;44763;50.464;30.612;2023-07-20T15:04:50;0.50;;;0.20;;
58978;SDS011;44763;50.464;30.612;2023-07-20T15:06:52;4.70;;;0.30;;
58978;SDS011;44763;50.464;30.612;2023-07-20T15:08:56;0.40;;;0.40;;
58978;SDS011;44763;50.464;30.612;2023-07-20T15:10:59;4.40;;;0.30;;
58978;SDS011;44763;50.464;30.612;2023-07-20T15:13:00;3.80;;;0.70;;
58978;SDS011;44763;50.464;30.612;2023-07-20T15:17:11;2.30;;;0.40;;
58978;SDS011;44763;50.464;30.612;2023-07-20T15:19:13;0.80;;;0.50;;
58978;SDS011;44763;50.464;30.612;2023-07-20T15:21:15;5.00;;;0.70;;
58978;SDS011;44763;50.464;30.612;2023-07-20T15:23:17;1.60;;;0.40;;
58978;SDS011;44763;50.464;30.612;2023-07-20T15:25:19;1.00;;;0.30;;
58978;SDS011;44763;50.464;30.612;2023-07-20T15:27:21;1.90;;;0.90;;
58978;SDS011;44763;50.464;30.612;2023-07-20T15:29:22;2.90;;;0.40;;
58978;SDS011;44763;50.464;30.612;2023-07-20T15:31:27;2.70;;;0.40;;
58978;SDS011;44763;50.464;30.612;2023-07-20T15:33:32;5.30;;;0.30;;
58978;SDS011;44763;50.464;30.612;2023-07-20T15:35:34;4.90;;;0.80;;
58978;SDS011;44763;50.464;30.612;2023-07-20T15:37:36;0.50;;;0.30;;
58978;SDS011;44763;50.464;30.612;2023-07-20T15:39:40;2.20;;;0.70;;
58978;SDS011;44763;50.464;30.612;2023-07-20T15:41:44;1.80;;;0.60;;
58978;SDS011;44763;50.464;30.612;2023-07-20T15:43:46;2.20;;;0.30;;
58978;SDS011;44763;50.464;30.612;2023-07-20T15:45:48;1.90;;;0.40;;
58978;SDS011;44763;50.464;30.612;2023-07-20T15:49:54;1.10;;;0.30;;
58978;SDS011;44763;50.464;30.612;2023-07-20T15:51:56;0.90;;;0.50;;
58978;SDS011;44763;50.464;30.612;2023-07-20T15:53:58;6.10;;;0.70;;
58978;SDS011;44763;50.464;30.612;2023-07-20T15:56:00;3.00;;;0.40;;
58978;SDS011;44763;50.464;30.612;2023-07-20T15:58:03;4.20;;;0.60;;
58978;SDS011;44763;50.464;30.612;2023-07-20T16:00:05;5.90;;;1.00;;
58978;SDS011;44763;50.464;30.612;2023-07-20T16:02:14;2.40;;;1.50;;
58978;SDS011;44763;50.464;30.612;2023-07-20T16:04:16;4.40;;;1.80;;
58978;SDS011;44763;50.464;30.612;2023-07-20T16:06:18;3.20;;;1.00;;
58978;SDS011;44763;50.464;30.612;2023-07-20T16:08:22;3.30;;;1.30;;
58978;SDS011;44763;50.464;30.612;2023-07-20T16:10:24;3.90;;;1.50;;
58978;SDS011;44763;50.464;30.612;2023-07-20T16:12:27;2.70;;;1.50;;
58978;SDS011;44763;50.464;30.612;2023-07-20T16:16:54;2.40;;;1.60;;
58978;SDS011;44763;50.464;30.612;2023-07-20T16:18:56;2.50;;;1.40;;
58978;SDS011;44763;50.464;30.612;2023-07-20T16:20:59;1.50;;;1.20;;
58978;SDS011;44763;50.464;30.612;2023-07-20T16:23:01;2.90;;;2.40;;
58978;SDS011;44763;50.464;30.612;2023-07-20T16:25:08;2.00;;;1.70;;
58978;SDS011;44763;50.464;30.612;2023-07-20T16:27:11;1.80;;;1.60;;
58978;SDS011;44763;50.464;30.612;2023-07-20T16:29:13;4.50;;;2.00;;
58978;SDS011;44763;50.464;30.612;2023-07-20T16:31:18;2.50;;;2.30;;
58978;SDS011;44763;50.464;30.612;2023-07-20T16:33:20;3.00;;;2.20;;
58978;SDS011;44763;50.464;30.612;2023-07-20T16:35:22;4.10;;;2.20;;
58978;SDS011;44763;50.464;30.612;2023-07-20T16:37:44;3.20;;;1.80;;
58978;SDS011;44763;50.464;30.612;2023-07-20T16:40:08;3.60;;;2.30;;
58978;SDS011;44763;50.464;30.612;2023-07-20T16:42:15;2.60;;;1.90;;
58978;SDS011;44763;50.464;30.612;2023-07-20T16:44:17;2.00;;;1.90;;
58978;SDS011;44763;50.464;30.612;2023-07-20T16:46:19;1.90;;;1.80;;
58978;SDS011;44763;50.464;30.612;2023-07-20T16:48:24;3.70;;;2.60;;
58978;SDS011;44763;50.464;30.612;2023-07-20T16:50:28;3.00;;;2.80;;
58978;SDS011;44763;50.464;30.612;2023-07-20T16:52:31;3.80;;;3.40;;
58978;SDS011;44763;50.464;30.612;2023-07-20T16:54:33;6.10;;;3.70;;
58978;SDS011;44763;50.464;30.612;2023-07-20T16:56:35;2.40;;;2.20;;
58978;SDS011;44763;50.464;30.612;2023-07-20T16:58:37;2.40;;;2.20;;
58978;SDS011;44763;50.464;30.612;2023-07-20T17:00:39;3.80;;;2.50;;
58978;SDS011;44763;50.464;30.612;2023-07-20T17:02:41;2.60;;;2.40;;
58978;SDS011;44763;50.464;30.612;2023-07-20T17:04:43;4.00;;;2.80;;
58978;SDS011;44763;50.464;30.612;2023-07-20T17:06:48;3.20;;;2.20;;
58978;SDS011;44763;50.464;30.612;2023-07-20T17:08:50;6.80;;;3.60;;
58978;SDS011;44763;50.464;30.612;2023-07-20T17:10:52;4.90;;;2.90;;
58978;SDS011;44763;50.464;30.612;2023-07-20T17:12:54;2.70;;;2.50;;
58978;SDS011;44763;50.464;30.612;2023-07-20T17:14:55;7.00;;;3.10;;
58978;SDS011;44763;50.464;30.612;2023-07-20T17:16:57;3.70;;;3.40;;
58978;SDS011;44763;50.464;30.612;2023-07-20T17:18:59;3.80;;;2.70;;
58978;SDS011;44763;50.464;30.612;2023-07-20T17:21:01;4.20;;;3.60;;
58978;SDS011;44763;50.464;30.612;2023-07-20T17:23:03;6.60;;;3.00;;
58978;SDS011;44763;50.464;30.612;2023-07-20T17:25:05;4.10;;;3.30;;
58978;SDS011;44763;50.464;30.612;2023-07-20T17:27:10;3.50;;;3.20;;
58978;SDS011;44763;50.464;30.612;2023-07-20T17:29:15;4.00;;;3.50;;
58978;SDS011;44763;50.464;30.612;2023-07-20T17:31:17;3.10;;;2.70;;
58978;SDS011;44763;50.464;30.612;2023-07-20T17:33:21;3.20;;;2.50;;
58978;SDS011;44763;50.464;30.612;2023-07-20T17:35:23;3.70;;;3.40;;
58978;SDS011;44763;50.464;30.612;2023-07-20T17:37:27;4.90;;;3.60;;
58978;SDS011;44763;50.464;30.612;2023-07-20T17:39:49;3.10;;;2.90;;
58978;SDS011;44763;50.464;30.612;2023-07-20T17:41:55;3.90;;;2.70;;
58978;SDS011;44763;50.464;30.612;2023-07-20T17:43:57;2.70;;;2.60;;
58978;SDS011;44763;50.464;30.612;2023-07-20T17:45:58;4.30;;;3.10;;
58978;SDS011;44763;50.464;30.612;2023-07-20T17:48:03;5.70;;;3.80;;
58978;SDS011;44763;50.464;30.612;2023-07-20T17:50:05;4.00;;;3.70;;
58978;SDS011;44763;50.464;30.612;2023-07-20T17:52:08;4.10;;;3.70;;
58978;SDS011;44763;50.464;30.612;2023-07-20T17:54:11;3.80;;;3.30;;
58978;SDS011;44763;50.464;30.612;2023-07-20T17:56:13;4.20;;;2.80;;
58978;SDS011;44763;50.464;30.612;2023-07-20T17:58:14;4.00;;;3.70;;
58978;SDS011;44763;50.464;30.612;2023-07-20T18:00:16;4.30;;;3.30;;
58978;SDS011;44763;50.464;30.612;2023-07-20T18:04:26;5.30;;;3.30;;
58978;SDS011;44763;50.464;30.612;2023-07-20T18:06:28;3.30;;;3.00;;
58978;SDS011;44763;50.464;30.612;2023-07-20T18:08:30;3.10;;;2.80;;
58978;SDS011;44763;50.464;30.612;2023-07-20T18:10:31;4.00;;;2.80;;
58978;SDS011;44763;50.464;30.612;2023-07-20T18:12:33;4.40;;;3.00;;
58978;SDS011;44763;50.464;30.612;2023-07-20T18:14:36;3.80;;;3.40;;
58978;SDS011;44763;50.464;30.612;2023-07-20T18:16:37;3.40;;;3.10;;
58978;SDS011;44763;50.464;30.612;2023-07-20T18:18:39;3.40;;;3.30;;
58978;SDS011;44763;50.464;30.612;2023-07-20T18:20:41;3.60;;;3.30;;
58978;SDS011;44763;50.464;30.612;2023-07-20T18:22:43;3.70;;;3.40;;
58978;SDS011;44763;50.464;30.612;2023-07-20T18:24:44;3.60;;;3.30;;
58978;SDS011;44763;50.464;30.612;2023-07-20T18:26:46;3.30;;;3.10;;
58978;SDS011;44763;50.464;30.612;2023-07-20T18:28:48;4.70;;;3.70;;